createdAt,value
2023-12-09T00:00:55.579Z,87.47
2023-12-09T00:03:25.430Z,87.35
2023-12-09T00:05:56.797Z,87.57
2023-12-09T00:08:27.157Z,88.07
2023-12-09T00:10:57.472Z,89.29
2023-12-09T00:13:28.469Z,89.13
2023-12-09T00:15:58.669Z,89.55
2023-12-09T00:18:29.326Z,89.87
2023-12-09T00:21:00.346Z,90.58
2023-12-09T00:23:30.097Z,90.47
2023-12-09T00:26:00.252Z,90.64
2023-12-09T00:28:30.872Z,90.83
2023-12-09T00:31:01.474Z,91.14
2023-12-09T00:33:31.634Z,91.20
2023-12-09T00:36:02.031Z,91.46
2023-12-09T00:38:33.875Z,91.89
2023-12-09T00:41:04.442Z,92.53
2023-12-09T00:43:35.829Z,92.69
2023-12-09T00:46:06.181Z,92.86
2023-12-09T00:48:36.319Z,93.24
2023-12-09T00:51:07.399Z,93.60
2023-12-09T00:53:37.817Z,94.05
2023-12-09T00:56:08.563Z,94.05
2023-12-09T00:58:38.949Z,94.07
2023-12-09T01:01:08.734Z,94.20
2023-12-09T01:03:39.219Z,94.40
2023-12-09T01:06:10.518Z,94.49
2023-12-09T01:08:41.356Z,94.70
2023-12-09T01:11:11.055Z,95.04
2023-12-09T01:13:41.784Z,95.23
2023-12-09T01:16:12.180Z,95.51
2023-12-09T01:18:42.536Z,95.27
2023-12-09T01:21:12.598Z,95.32
2023-12-09T01:23:43.058Z,95.05
2023-12-09T01:26:12.821Z,95.03
2023-12-09T01:28:43.106Z,94.67
2023-12-09T01:31:13.390Z,95.03
2023-12-09T01:33:44.636Z,94.80
2023-12-09T01:36:14.801Z,95.15
2023-12-09T01:38:44.521Z,95.38
2023-12-09T01:41:15.939Z,95.44
2023-12-09T01:43:50.955Z,95.92
2023-12-09T01:46:22.697Z,95.80
2023-12-09T01:48:54.448Z,95.93
2023-12-09T01:51:26.635Z,95.75
2023-12-09T01:53:58.348Z,95.85
2023-12-09T01:56:28.996Z,95.95
2023-12-09T01:58:59.852Z,95.76
2023-12-09T02:01:33.017Z,96.09
2023-12-09T02:04:04.395Z,96.36
2023-12-09T02:06:35.485Z,96.29
2023-12-09T02:09:05.891Z,96.65
2023-12-09T02:12:06.658Z,96.66
2023-12-09T02:14:47.313Z,97.13
2023-12-09T02:17:33.823Z,97.35
2023-12-09T02:20:06.048Z,97.19
2023-12-09T02:22:36.219Z,97.27
2023-12-09T02:25:06.918Z,97.29
2023-12-09T02:27:51.455Z,97.83
2023-12-09T02:30:29.841Z,97.89
2023-12-09T02:33:01.796Z,98.14
2023-12-09T02:35:34.297Z,98.23
2023-12-09T02:38:06.815Z,98.39
2023-12-09T02:40:38.142Z,98.42
2023-12-09T02:43:08.739Z,98.55
2023-12-09T02:45:40.286Z,98.79
2023-12-09T02:48:11.810Z,98.98
2023-12-09T02:50:42.798Z,99.15
2023-12-09T02:53:12.570Z,99.17
2023-12-09T02:55:43.063Z,99.14
2023-12-09T02:58:13.144Z,99.33
2023-12-09T03:00:44.342Z,99.30
2023-12-09T03:03:14.303Z,99.57
2023-12-09T03:05:44.968Z,99.67
2023-12-09T03:08:15.180Z,99.82
2023-12-09T03:10:46.182Z,99.91
2023-12-09T03:13:16.189Z,99.99
2023-12-09T03:15:45.940Z,99.99
2023-12-09T03:18:16.288Z,99.99
2023-12-09T03:20:46.655Z,99.99
2023-12-09T03:23:17.476Z,99.99
2023-12-09T03:25:47.487Z,99.99
2023-12-09T03:28:17.605Z,99.99
2023-12-09T03:30:47.331Z,99.99
2023-12-09T03:33:17.364Z,99.99
2023-12-09T03:35:47.817Z,99.99
2023-12-09T03:38:18.743Z,99.99
2023-12-09T03:40:48.432Z,99.99
2023-12-09T03:43:18.388Z,99.99
2023-12-09T03:45:48.275Z,99.99
2023-12-09T03:48:19.360Z,99.99
2023-12-09T03:50:50.026Z,99.99
2023-12-09T03:53:20.822Z,99.99
2023-12-09T03:55:55.369Z,99.99
2023-12-09T03:58:26.005Z,99.99
2023-12-09T04:00:56.522Z,99.99
2023-12-09T04:03:26.314Z,99.99
2023-12-09T04:05:57.423Z,99.99
2023-12-09T04:08:28.449Z,99.99
2023-12-09T04:10:58.990Z,99.99
2023-12-09T04:13:29.507Z,99.99
2023-12-09T04:15:59.364Z,99.99
2023-12-09T04:18:30.342Z,99.99
2023-12-09T04:21:01.497Z,99.99
2023-12-09T04:23:31.441Z,99.99
2023-12-09T04:26:01.607Z,99.99
2023-12-09T04:28:31.429Z,99.99
2023-12-09T04:31:01.362Z,99.99
2023-12-09T04:33:32.247Z,99.99
2023-12-09T04:36:02.665Z,99.99
2023-12-09T04:38:32.366Z,99.99
2023-12-09T04:41:02.200Z,99.99
2023-12-09T04:43:32.650Z,99.99
2023-12-09T04:46:04.177Z,99.99
2023-12-09T04:48:35.148Z,99.99
2023-12-09T04:51:05.454Z,99.99
2023-12-09T04:53:37.194Z,99.99
2023-12-09T04:56:10.168Z,99.99
2023-12-09T04:58:40.392Z,99.99
2023-12-09T05:01:11.133Z,99.99
2023-12-09T05:03:42.027Z,99.99
2023-12-09T05:06:12.620Z,99.99
2023-12-09T05:08:44.468Z,99.99
2023-12-09T05:11:14.433Z,99.99
2023-12-09T05:13:44.155Z,99.99
2023-12-09T05:16:14.377Z,99.99
2023-12-09T05:18:44.931Z,99.99
2023-12-09T05:21:16.381Z,99.99
2023-12-09T05:23:46.152Z,99.99
2023-12-09T05:26:27.722Z,99.99
2023-12-09T05:28:59.318Z,99.99
2023-12-09T05:31:30.714Z,99.99
2023-12-09T05:34:00.644Z,99.99
2023-12-09T05:36:31.391Z,99.99
2023-12-09T05:39:01.957Z,99.99
2023-12-09T05:41:33.126Z,99.99
2023-12-09T05:44:03.209Z,99.99
2023-12-09T05:46:33.234Z,99.99
2023-12-09T05:49:03.434Z,99.99
2023-12-09T05:51:33.923Z,99.99
2023-12-09T05:54:04.450Z,99.99
2023-12-09T05:56:34.240Z,99.99
2023-12-09T05:59:04.649Z,99.99
2023-12-09T06:01:35.914Z,99.99
2023-12-09T06:04:06.582Z,99.99
2023-12-09T06:06:36.586Z,99.99
2023-12-09T06:09:07.804Z,99.99
2023-12-09T06:11:38.370Z,99.99
2023-12-09T06:14:09.515Z,99.99
2023-12-09T06:16:39.998Z,99.99
2023-12-09T06:19:10.191Z,99.99
2023-12-09T06:21:41.345Z,99.99
2023-12-09T06:24:12.044Z,99.99
2023-12-09T06:26:46.609Z,99.99
2023-12-09T06:29:19.386Z,99.99
2023-12-09T06:31:50.156Z,99.99
2023-12-09T06:34:20.621Z,99.99
2023-12-09T06:36:50.892Z,99.99
2023-12-09T06:39:21.719Z,99.99
2023-12-09T06:41:51.619Z,99.99
2023-12-09T06:44:22.152Z,99.99
2023-12-09T06:46:53.275Z,99.99
2023-12-09T06:49:23.429Z,99.99
2023-12-09T06:51:53.213Z,99.99
2023-12-09T06:54:24.021Z,99.99
2023-12-09T06:56:55.662Z,99.99
2023-12-09T06:59:26.773Z,99.99
2023-12-09T07:02:02.621Z,99.99
2023-12-09T07:04:35.454Z,99.99
2023-12-09T07:07:08.638Z,99.99
2023-12-09T07:09:42.188Z,99.99
2023-12-09T07:12:12.271Z,99.99
2023-12-09T07:14:41.990Z,99.99
2023-12-09T07:17:12.728Z,99.99
2023-12-09T07:19:43.337Z,99.99
2023-12-09T07:22:14.407Z,99.99
2023-12-09T07:24:44.217Z,99.99
2023-12-09T07:27:16.384Z,99.99
2023-12-09T07:29:46.976Z,99.99
2023-12-09T07:32:18.287Z,99.99
2023-12-09T07:34:48.409Z,99.99
2023-12-09T07:37:19.210Z,99.99
2023-12-09T07:39:50.390Z,99.99
2023-12-09T07:42:21.076Z,99.99
2023-12-09T07:44:51.765Z,99.99
2023-12-09T07:47:21.455Z,99.99
2023-12-09T07:49:52.159Z,99.99
2023-12-09T07:52:22.336Z,99.99
2023-12-09T07:54:52.652Z,99.99
2023-12-09T07:57:22.529Z,99.99
2023-12-09T07:59:52.636Z,99.99
2023-12-09T08:02:22.627Z,99.99
2023-12-09T08:04:53.052Z,99.99
2023-12-09T08:07:22.801Z,99.99
2023-12-09T08:09:52.726Z,99.99
2023-12-09T08:12:23.371Z,99.99
2023-12-09T08:14:54.409Z,99.99
2023-12-09T08:17:24.994Z,99.99
2023-12-09T08:19:55.850Z,99.99
2023-12-09T08:22:26.005Z,99.99
2023-12-09T08:24:56.272Z,99.99
2023-12-09T08:27:27.368Z,99.99
2023-12-09T08:29:57.848Z,99.99
2023-12-09T08:32:28.050Z,99.99
2023-12-09T08:35:07.023Z,99.99
2023-12-09T08:37:41.346Z,99.99
2023-12-09T08:40:14.573Z,99.99
2023-12-09T08:42:46.782Z,99.99
2023-12-09T08:45:19.362Z,99.99
2023-12-09T08:47:50.180Z,99.99
2023-12-09T08:50:24.078Z,99.99
2023-12-09T08:52:55.894Z,99.99
2023-12-09T08:55:26.423Z,99.99
2023-12-09T08:57:56.615Z,99.99
2023-12-09T09:00:29.007Z,99.99
2023-12-09T09:02:59.314Z,99.99
2023-12-09T09:05:29.715Z,99.99
2023-12-09T09:07:59.964Z,99.99
2023-12-09T09:10:30.814Z,99.99
2023-12-09T09:13:01.477Z,99.99
2023-12-09T09:15:31.261Z,99.99
2023-12-09T09:18:01.599Z,99.99
2023-12-09T09:20:32.233Z,99.99
2023-12-09T09:23:02.952Z,99.99
2023-12-09T09:25:33.020Z,99.99
2023-12-09T09:28:05.644Z,99.99
2023-12-09T09:30:37.070Z,99.99
2023-12-09T09:33:08.853Z,99.99
2023-12-09T09:35:39.297Z,99.99
2023-12-09T09:38:09.139Z,99.52
2023-12-09T09:40:39.123Z,99.13
2023-12-09T09:43:22.267Z,98.86
2023-12-09T09:45:57.641Z,98.82
2023-12-09T09:48:29.854Z,97.92
2023-12-09T09:51:05.277Z,97.32
2023-12-09T09:53:43.809Z,97.03
2023-12-09T09:56:15.489Z,96.68
2023-12-09T09:58:46.628Z,96.50
2023-12-09T10:01:18.889Z,96.17
2023-12-09T10:03:50.921Z,95.76
2023-12-09T10:06:22.430Z,95.24
2023-12-09T10:08:52.775Z,94.86
2023-12-09T10:11:22.531Z,94.55
2023-12-09T10:13:52.860Z,94.24
2023-12-09T10:16:22.571Z,94.62
2023-12-09T10:18:53.147Z,94.34
2023-12-09T10:21:24.013Z,93.75
2023-12-09T10:23:54.439Z,93.84
2023-12-09T10:26:24.580Z,92.51
2023-12-09T10:28:54.940Z,90.17
2023-12-09T10:31:25.811Z,88.76
2023-12-09T10:33:56.787Z,88.37
2023-12-09T10:36:27.049Z,88.31
2023-12-09T10:38:56.880Z,88.13
2023-12-09T10:41:30.743Z,88.57
2023-12-09T10:44:01.477Z,88.14
2023-12-09T10:46:31.275Z,88.34
2023-12-09T10:49:01.641Z,88.60
2023-12-09T10:51:32.111Z,86.90
2023-12-09T10:54:02.571Z,86.30
2023-12-09T10:56:33.116Z,85.26
2023-12-09T10:59:04.312Z,85.96
2023-12-09T11:01:34.731Z,83.65
2023-12-09T11:04:08.332Z,79.89
2023-12-09T11:06:40.688Z,79.52
2023-12-09T11:09:12.405Z,80.09
2023-12-09T11:11:44.420Z,78.03
2023-12-09T11:14:15.001Z,79.44
2023-12-09T11:16:47.177Z,80.51
2023-12-09T11:19:21.246Z,79.30
2023-12-09T11:21:52.696Z,78.10
2023-12-09T11:24:23.471Z,75.73
2023-12-09T11:26:56.821Z,76.06
2023-12-09T11:29:27.895Z,76.86
2023-12-09T11:31:58.196Z,78.15
2023-12-09T11:34:28.251Z,75.68
2023-12-09T11:37:00.080Z,73.88
2023-12-09T11:39:32.597Z,72.58
2023-12-09T11:42:03.449Z,74.99
2023-12-09T11:44:34.355Z,75.28
2023-12-09T11:47:06.946Z,73.56
2023-12-09T11:49:38.762Z,73.80
2023-12-09T11:52:10.490Z,70.82
2023-12-09T11:54:41.106Z,73.35
2023-12-09T11:57:11.904Z,69.67
2023-12-09T11:59:42.873Z,69.17
2023-12-09T12:02:13.020Z,71.82
2023-12-09T12:04:42.788Z,67.16
2023-12-09T12:07:13.726Z,72.03
2023-12-09T12:09:44.207Z,69.98
2023-12-09T12:12:14.484Z,70.70
2023-12-09T12:14:44.925Z,69.90
2023-12-09T12:17:17.454Z,68.09
2023-12-09T12:19:47.741Z,69.32
2023-12-09T12:22:18.056Z,69.88
2023-12-09T12:24:49.972Z,66.87
2023-12-09T12:27:22.030Z,67.96
2023-12-09T12:29:52.979Z,65.08
2023-12-09T12:32:23.110Z,66.59
2023-12-09T12:34:54.070Z,67.37
2023-12-09T12:37:24.920Z,68.29
2023-12-09T12:39:55.260Z,68.99
2023-12-09T12:42:25.992Z,69.29
2023-12-09T12:44:56.762Z,68.52
2023-12-09T12:47:27.804Z,68.29
2023-12-09T12:49:58.664Z,69.01
2023-12-09T12:52:28.833Z,66.48
2023-12-09T12:55:00.586Z,67.99
2023-12-09T12:57:32.959Z,70.86
2023-12-09T13:00:07.631Z,68.71
2023-12-09T13:02:42.909Z,70.44
2023-12-09T13:05:13.840Z,69.70
2023-12-09T13:07:46.840Z,70.41
2023-12-09T13:10:17.766Z,69.54
2023-12-09T13:12:47.812Z,67.16
2023-12-09T13:15:18.504Z,66.79
2023-12-09T13:17:48.711Z,67.26
2023-12-09T13:20:20.005Z,70.55
2023-12-09T13:22:50.093Z,68.36
2023-12-09T13:25:20.427Z,65.62
2023-12-09T13:27:51.299Z,67.56
2023-12-09T13:30:21.214Z,67.67
2023-12-09T13:32:51.600Z,68.20
2023-12-09T13:35:22.743Z,71.58
2023-12-09T13:37:53.358Z,66.62
2023-12-09T13:40:32.087Z,64.44
2023-12-09T13:43:02.540Z,64.04
2023-12-09T13:45:38.112Z,64.99
2023-12-09T13:48:10.579Z,68.66
2023-12-09T13:50:42.215Z,68.13
2023-12-09T13:53:12.425Z,67.95
2023-12-09T13:55:42.488Z,67.50
2023-12-09T13:58:13.560Z,63.83
2023-12-09T14:00:47.729Z,66.84
2023-12-09T14:03:18.001Z,65.24
2023-12-09T14:05:47.964Z,65.04
2023-12-09T14:08:19.467Z,67.26
2023-12-09T14:10:50.226Z,66.74
2023-12-09T14:13:21.801Z,66.68
2023-12-09T14:15:51.994Z,68.73
2023-12-09T14:18:24.473Z,65.75
2023-12-09T14:20:55.200Z,64.94
2023-12-09T14:23:30.124Z,68.05
2023-12-09T14:26:00.727Z,69.52
2023-12-09T14:28:30.654Z,71.71
2023-12-09T14:31:01.566Z,68.83
2023-12-09T14:33:32.122Z,67.10
2023-12-09T14:36:02.614Z,66.40
2023-12-09T14:38:33.401Z,68.71
2023-12-09T14:41:04.956Z,68.48
2023-12-09T14:43:35.455Z,69.43
2023-12-09T14:46:33.587Z,70.43
2023-12-09T14:49:06.035Z,69.31
2023-12-09T14:51:42.919Z,71.92
2023-12-09T14:54:18.176Z,65.74
2023-12-09T14:56:49.647Z,68.17
2023-12-09T14:59:26.501Z,65.65
2023-12-09T15:01:57.830Z,66.43
2023-12-09T15:04:42.450Z,69.31
2023-12-09T15:07:24.353Z,64.33
2023-12-09T15:09:54.822Z,64.46
2023-12-09T15:12:26.283Z,66.13
2023-12-09T15:14:59.341Z,63.81
2023-12-09T15:17:29.355Z,62.99
2023-12-09T15:19:59.353Z,63.85
2023-12-09T15:22:30.212Z,64.15
2023-12-09T15:25:00.520Z,67.88
2023-12-09T15:27:32.435Z,65.92
2023-12-09T15:30:06.187Z,65.06
2023-12-09T15:32:37.435Z,64.16
2023-12-09T15:35:08.750Z,65.19
2023-12-09T15:37:39.970Z,67.67
2023-12-09T15:40:13.150Z,67.95
2023-12-09T15:42:45.502Z,66.00
2023-12-09T15:45:17.260Z,64.40
2023-12-09T15:47:47.819Z,64.79
2023-12-09T15:50:17.952Z,64.89
2023-12-09T15:52:49.845Z,63.14
2023-12-09T15:55:20.482Z,62.78
2023-12-09T15:57:52.482Z,65.02
2023-12-09T16:00:23.158Z,65.14
2023-12-09T16:02:53.309Z,64.61
2023-12-09T16:05:24.500Z,64.57
2023-12-09T16:07:55.460Z,65.76
2023-12-09T16:10:27.179Z,65.97
2023-12-09T16:12:57.960Z,64.79
2023-12-09T16:15:29.060Z,64.42
2023-12-09T16:17:59.367Z,66.27
2023-12-09T16:20:29.538Z,67.82
2023-12-09T16:23:00.200Z,64.34
2023-12-09T16:25:30.359Z,65.51
2023-12-09T16:28:01.313Z,66.22
2023-12-09T16:30:32.552Z,64.72
2023-12-09T16:33:04.095Z,66.37
2023-12-09T16:35:34.798Z,66.59
2023-12-09T16:38:04.594Z,64.83
2023-12-09T16:40:35.860Z,65.51
2023-12-09T16:43:06.565Z,65.12
2023-12-09T16:45:37.348Z,64.41
2023-12-09T16:48:07.459Z,64.73
2023-12-09T16:50:38.087Z,64.68
2023-12-09T16:53:08.665Z,65.98
2023-12-09T16:55:39.137Z,66.94
2023-12-09T16:58:11.334Z,65.11
2023-12-09T17:00:42.007Z,65.60
2023-12-09T17:03:13.033Z,67.10
2023-12-09T17:05:44.136Z,64.57
2023-12-09T17:08:14.144Z,63.29
2023-12-09T17:10:43.947Z,67.06
2023-12-09T17:13:15.286Z,64.04
2023-12-09T17:15:46.678Z,63.48
2023-12-09T17:18:18.100Z,67.39
2023-12-09T17:20:48.956Z,64.12
2023-12-09T17:23:19.178Z,64.19
2023-12-09T17:25:49.423Z,65.76
2023-12-09T17:28:20.967Z,65.71
2023-12-09T17:30:52.310Z,64.93
2023-12-09T17:33:24.100Z,64.83
2023-12-09T17:35:54.858Z,65.65
2023-12-09T17:38:25.366Z,65.93
2023-12-09T17:40:56.036Z,65.74
2023-12-09T17:43:26.252Z,68.57
2023-12-09T17:45:57.146Z,65.36
2023-12-09T17:48:28.241Z,65.94
2023-12-09T17:50:58.311Z,64.69
2023-12-09T17:53:28.288Z,65.24
2023-12-09T17:55:59.040Z,64.24
2023-12-09T17:58:29.771Z,65.69
2023-12-09T18:00:59.624Z,64.50
2023-12-09T18:03:30.090Z,65.75
2023-12-09T18:06:00.553Z,63.46
2023-12-09T18:08:31.110Z,64.77
2023-12-09T18:11:01.354Z,64.69
2023-12-09T18:13:31.118Z,63.49
2023-12-09T18:16:02.032Z,63.57
2023-12-09T18:18:33.031Z,64.82
2023-12-09T18:21:03.072Z,64.17
2023-12-09T18:23:32.793Z,63.80
2023-12-09T18:26:03.959Z,66.39
2023-12-09T18:28:34.614Z,64.24
2023-12-09T18:31:05.658Z,65.77
2023-12-09T18:33:37.846Z,64.90
2023-12-09T18:36:10.642Z,68.21
2023-12-09T18:38:41.495Z,65.81
2023-12-09T18:41:12.266Z,65.91
2023-12-09T18:43:42.840Z,63.69
2023-12-09T18:46:13.133Z,64.16
2023-12-09T18:48:44.177Z,66.07
2023-12-09T18:51:14.785Z,64.11
2023-12-09T18:53:44.681Z,66.86
2023-12-09T18:56:15.468Z,67.16
2023-12-09T18:58:45.795Z,65.31
2023-12-09T19:01:17.205Z,66.03
2023-12-09T19:03:48.123Z,66.89
2023-12-09T19:06:19.312Z,68.32
2023-12-09T19:08:49.786Z,67.83
2023-12-09T19:11:20.216Z,67.13
2023-12-09T19:13:50.465Z,68.43
2023-12-09T19:16:20.237Z,69.11
2023-12-09T19:18:50.559Z,70.18
2023-12-09T19:21:20.774Z,69.16
2023-12-09T19:23:51.008Z,70.30
2023-12-09T19:26:21.532Z,71.82
2023-12-09T19:28:52.311Z,70.68
2023-12-09T19:31:22.492Z,71.52
2023-12-09T19:33:52.306Z,70.39
2023-12-09T19:36:23.806Z,71.64
2023-12-09T19:38:54.753Z,71.17
2023-12-09T19:41:25.866Z,72.57
2023-12-09T19:43:55.966Z,71.55
2023-12-09T19:46:25.709Z,72.06
2023-12-09T19:48:55.879Z,71.22
2023-12-09T19:51:26.650Z,72.27
2023-12-09T19:53:57.343Z,72.16
2023-12-09T19:56:27.631Z,72.06
2023-12-09T19:58:57.623Z,71.45
2023-12-09T20:01:28.001Z,72.65
2023-12-09T20:03:58.931Z,72.01
2023-12-09T20:06:29.920Z,72.00
2023-12-09T20:09:01.794Z,71.92
2023-12-09T20:11:31.685Z,71.45
2023-12-09T20:14:02.169Z,72.67
2023-12-09T20:16:32.617Z,73.07
2023-12-09T20:19:02.443Z,73.57
2023-12-09T20:21:39.330Z,72.56
2023-12-09T20:24:10.541Z,72.48
2023-12-09T20:26:40.800Z,72.88
2023-12-09T20:29:11.048Z,73.23
2023-12-09T20:31:40.999Z,74.13
2023-12-09T20:34:12.179Z,73.30
2023-12-09T20:36:43.111Z,74.55
2023-12-09T20:39:13.611Z,73.59
2023-12-09T20:41:44.731Z,73.67
2023-12-09T20:44:16.409Z,74.31
2023-12-09T20:46:46.945Z,73.85
2023-12-09T20:49:20.074Z,74.62
2023-12-09T20:51:51.144Z,75.09
2023-12-09T20:54:21.904Z,74.81
2023-12-09T20:56:52.666Z,74.76
2023-12-09T20:59:23.207Z,75.36
2023-12-09T21:01:55.103Z,75.15
2023-12-09T21:04:28.369Z,75.78
2023-12-09T21:06:59.418Z,76.39
2023-12-09T21:09:30.939Z,76.76
2023-12-09T21:12:03.391Z,76.99
2023-12-09T21:14:34.090Z,77.12
2023-12-09T21:17:05.240Z,76.92
2023-12-09T21:19:36.608Z,78.30
2023-12-09T21:22:08.113Z,77.54
2023-12-09T21:24:38.364Z,77.76
2023-12-09T21:27:10.028Z,78.00
2023-12-09T21:29:41.398Z,78.45
2023-12-09T21:32:11.677Z,78.08
2023-12-09T21:34:41.467Z,79.02
2023-12-09T21:37:12.756Z,79.21
2023-12-09T21:39:43.967Z,79.49
2023-12-09T21:42:14.903Z,80.32
2023-12-09T21:44:46.878Z,80.51
2023-12-09T21:47:17.499Z,80.97
2023-12-09T21:49:47.788Z,81.88
2023-12-09T21:52:18.715Z,80.93
2023-12-09T21:54:49.110Z,81.01
2023-12-09T21:57:19.324Z,80.93
2023-12-09T21:59:49.916Z,82.35
2023-12-09T22:02:21.211Z,82.26
2023-12-09T22:04:52.755Z,82.58
2023-12-09T22:07:23.961Z,82.76
2023-12-09T22:09:56.113Z,82.51
2023-12-09T22:12:27.788Z,83.42
2023-12-09T22:14:58.391Z,83.74
2023-12-09T22:17:29.803Z,84.34
2023-12-09T22:20:00.393Z,84.88
2023-12-09T22:22:38.039Z,84.98
2023-12-09T22:25:15.071Z,85.16
2023-12-09T22:27:45.330Z,86.14
2023-12-09T22:30:16.198Z,85.41
2023-12-09T22:32:46.971Z,85.81
2023-12-09T22:35:17.727Z,86.16
2023-12-09T22:37:47.493Z,87.04
2023-12-09T22:40:18.363Z,86.97
2023-12-09T22:42:48.522Z,87.33
2023-12-09T22:45:19.279Z,87.40
2023-12-09T22:47:49.571Z,87.60
2023-12-09T22:50:20.701Z,88.05
2023-12-09T22:52:50.907Z,88.22
2023-12-09T22:55:21.160Z,88.51
2023-12-09T22:57:50.972Z,88.51
2023-12-09T23:00:29.555Z,88.65
2023-12-09T23:03:03.379Z,88.66
2023-12-09T23:05:34.917Z,88.72
2023-12-09T23:08:05.644Z,89.07
2023-12-09T23:10:35.612Z,88.74
2023-12-09T23:13:06.119Z,88.78
2023-12-09T23:15:36.231Z,89.17
2023-12-09T23:18:07.064Z,89.13
2023-12-09T23:20:37.514Z,89.59
2023-12-09T23:23:07.393Z,89.77
2023-12-09T23:25:39.159Z,90.07
2023-12-09T23:28:10.877Z,89.83
2023-12-09T23:30:41.945Z,89.71
2023-12-09T23:33:13.894Z,89.68
2023-12-09T23:35:44.909Z,89.21
2023-12-09T23:38:15.896Z,89.34
2023-12-09T23:40:46.128Z,89.23
2023-12-09T23:43:15.925Z,89.09
2023-12-09T23:45:46.231Z,89.21
2023-12-09T23:48:19.681Z,89.04
2023-12-09T23:50:51.495Z,89.37
2023-12-09T23:53:21.668Z,89.04
2023-12-09T23:55:51.673Z,88.99
2023-12-09T23:58:22.503Z,89.18
